RJOO/ITM METAR and TAF weather

Enter ICAO airport designator
Station Type Date Time Source
RJOO METAR 2018/12/15 02:00 UTC NOAA

RJOO 150200Z 34005KT 290V030 9999 FEW025 SCT040 BKN060 08/M01 Q1030


Station Type Date Time Source
RJOO Decoded METAR 2018/12/15 02:00 UTC NOAA

Osaka International Airport, Japan (RJOO) 34-47N 135-27E 15M
Dec 14, 2018 - 09:00 PM EST / 2018.12.15 0200 UTC
Wind: from the NNW (340 degrees) at 6 MPH (5 KT) (direction variable):0
Visibility: greater than 7 mile(s):0
Sky conditions: mostly cloudy
Temperature: 46 F (8 C)
Dew Point: 30 F (-1 C)
Relative Humidity: 52%
Pressure (altimeter): 30.42 in. Hg (1030 hPa)
ob: RJOO 150200Z 34005KT 290V030 9999 FEW025 SCT040 BKN060 08/M01 Q1030
cycle: 2

Station Type Date Time Source
RJOO TAF 2018/12/14 18:33 UTC NOAA

TAF RJOO 141705Z 1418/1600 33009KT 9999 FEW025 BKN035
BECMG 1515/1518 07005KT


Example: see airport list